Mayfield Heights, OH (44124)

6:27 PM EDT on April 27, 2015 (GMT -0400)
Buckeye Woodhill | | Change Station
CLOSE
Current Station
Personal Weather Station
Location: Cleveland, OH
Elevation: 776 ft
Nearby Weather Stations

Elev 776 ft 41.48 °N, 81.62 °W | Updated 27 seconds ago

Mostly Cloudy
Mostly Cloudy
45.1 °F
Feels Like 43 °F
N
4.3
Wind Variable Wind from NW
Gusts 4.3 mph

Today
High -- | Low -- °F
--% Chance of Precip.
Yesterday
High -- | Low -- °F
Precip. -- in
6:29 AM 8:19 PM
Waxing Gibbous, 68% visible
Pressure 30.02 in
Visibility 10.0 miles
Clouds Mostly Cloudy 6000 ft
Mostly Cloudy 8500 ft
Windchill 43 °F
Dew Point 38 °F
Humidity 75%
Rainfall 0.02 in
Snow Depth Not available.
UV 1 out of 12
Pollen 8.10 out of 12
Air Quality Not available.
Flu Activity Regional
METAR KBKL 272153Z 32011KT 10SM BKN060 BKN085 07/03 A3001 RMK AO2 SLP166 T00720028

More Conditions Fewer Conditions

Pressure 30.02 in
Visibility 10.0 miles
Clouds Mostly Cloudy 6000 ft
Mostly Cloudy 8500 ft
Windchill 43 °F
Dew Point 38 °F
Humidity 75%
Rainfall 0.02 in
Snow Depth Not available.
UV 1 out of 12
Pollen 8.10 out of 12
Air Quality Not available.
Flu Activity Regional
METAR KBKL 272153Z 32011KT 10SM BKN060 BKN085 07/03 A3001 RMK AO2 SLP166 T00720028

More Conditions Fewer Conditions

10-Day Weather Forecast

Almanac

Astronomy

Apr. 27, 2015 Rise Set
Actual Time
Civil Twilight
Nautical Twilight
Astronomical Twilight
Moon
Length of Visible Light
Length of Day
Tomorrow will be .
, % of the Moon is Illuminated

Today's Extremes

State Highs State Lows

Community

WunderPhotos

Upload Photos

1,817,442 photos uploaded!

WunderBlogs® & News

Nearby

Air Quality

  Air Quality AQ Index Pollutant
Not available.

Snow Depth

Station Depth Elevation

Earthquake Activity

City Distance Mag. Time & Date
Minimum magnitude displayed is 2.5.

Coastal Water Temperatures

Place Temperature

Stations

Nearby Weather Stations

Station Location Temp. Windchill Dew Point Humidity Wind Precip. Elev Updated Type